Time,TemperatureF,DewpointF,PressureIn,WindDirection,WindDirectionDegrees,WindSpeedMPH,WindSpeedGustMPH,Humidity,HourlyPrecipIn,Conditions,Clouds,dailyrainin,SoftwareType,DateUTC
2013-08-14 00:03:00,78.6,73.4,29.41,North,0,0.0,0.0,84,0.00,,BKN,0.00,VWS V14.01,2013-08-14 05:03:00,
2013-08-14 00:08:00,78.8,73.2,29.41,North,0,0.0,0.0,83,0.00,,BKN,0.00,VWS V14.01,2013-08-14 05:08:00,
2013-08-14 00:13:00,79.0,73.4,29.41,North,0,0.0,0.0,83,0.00,,BKN,0.00,VWS V14.01,2013-08-14 05:13:00,
2013-08-14 00:18:00,78.8,73.2,29.41,North,0,0.0,0.0,83,0.00,,BKN,0.00,VWS V14.01,2013-08-14 05:18:00,
2013-08-14 00:23:00,78.8,72.8,29.41,North,0,0.0,0.0,82,0.00,,BKN,0.00,VWS V14.01,2013-08-14 05:23:00,
2013-08-14 00:29:00,78.8,73.2,29.41,North,0,0.0,0.0,83,0.00,,BKN,0.00,VWS V14.01,2013-08-14 05:29:00,
2013-08-14 00:34:00,78.6,73.0,29.41,North,0,0.0,0.0,83,0.00,,BKN,0.00,VWS V14.01,2013-08-14 05:34:00,
2013-08-14 00:39:00,78.6,73.0,29.41,North,0,0.0,0.0,83,0.00,,BKN,0.00,VWS V14.01,2013-08-14 05:39:00,
2013-08-14 00:44:00,78.4,72.8,29.41,North,0,0.0,0.0,83,0.00,,BKN,0.00,VWS V14.01,2013-08-14 05:44:00,
2013-08-14 00:49:00,78.4,72.8,29.41,North,0,0.0,0.0,83,0.00,,BKN,0.00,VWS V14.01,2013-08-14 05:49:00,
2013-08-14 00:54:00,78.4,72.8,29.41,North,0,0.0,0.0,83,0.00,,BKN,0.00,VWS V14.01,2013-08-14 05:54:00,
2013-08-14 00:59:00,78.4,73.2,29.41,North,0,0.0,0.0,84,0.00,,BKN,0.00,VWS V14.01,2013-08-14 05:59:00,
2013-08-14 01:04:00,78.4,73.2,29.41,North,0,0.0,0.0,84,0.00,,BKN,0.00,VWS V14.01,2013-08-14 06:04:00,
2013-08-14 01:10:00,78.4,73.2,29.41,North,0,0.0,0.0,84,0.00,,BKN,0.00,VWS V14.01,2013-08-14 06:10:00,
2013-08-14 01:15:00,78.3,73.0,29.41,North,0,0.0,0.0,84,0.00,,BKN,0.00,VWS V14.01,2013-08-14 06:15:00,
2013-08-14 01:20:00,78.3,73.0,29.41,North,0,0.0,0.0,84,0.00,,BKN,0.00,VWS V14.01,2013-08-14 06:20:00,
2013-08-14 01:25:00,78.3,73.0,29.41,North,0,0.0,0.0,84,0.00,,BKN,0.00,VWS V14.01,2013-08-14 06:25:00,
2013-08-14 01:30:00,78.3,73.0,29.41,North,0,0.0,0.0,84,0.00,,BKN,0.00,VWS V14.01,2013-08-14 06:30:00,
2013-08-14 01:35:00,78.1,73.2,29.41,North,0,0.0,0.0,85,0.00,,BKN,0.00,VWS V14.01,2013-08-14 06:35:00,
2013-08-14 01:40:00,78.1,73.2,29.41,North,0,0.0,0.0,85,0.00,,BKN,0.00,VWS V14.01,2013-08-14 06:40:00,
2013-08-14 01:45:00,78.1,73.2,29.41,North,0,0.0,0.0,85,0.00,,BKN,0.00,VWS V14.01,2013-08-14 06:45:00,
2013-08-14 01:50:00,77.9,73.0,29.41,North,0,0.0,0.0,85,0.00,,BKN,0.00,VWS V14.01,2013-08-14 06:50:00,
2013-08-14 01:55:00,77.9,73.0,29.41,North,0,0.0,0.0,85,0.00,,BKN,0.00,VWS V14.01,2013-08-14 06:55:00,
2013-08-14 02:01:00,77.9,73.0,29.41,North,0,0.0,0.0,85,0.00,,BKN,0.00,VWS V14.01,2013-08-14 07:01:00,
2013-08-14 02:06:00,77.9,73.0,29.41,North,0,0.0,0.0,85,0.00,,BKN,0.00,VWS V14.01,2013-08-14 07:06:00,
2013-08-14 02:11:00,77.7,72.8,29.41,North,0,0.0,0.0,85,0.00,,BKN,0.00,VWS V14.01,2013-08-14 07:11:00,
2013-08-14 02:16:00,77.7,72.8,29.41,North,0,0.0,0.0,85,0.00,,BKN,0.00,VWS V14.01,2013-08-14 07:16:00,
2013-08-14 02:21:00,77.9,73.4,29.41,North,0,0.0,0.0,86,0.00,,BKN,0.00,VWS V14.01,2013-08-14 07:21:00,
2013-08-14 02:26:00,77.9,73.4,29.41,North,0,0.0,0.0,86,0.00,,BKN,0.00,VWS V14.01,2013-08-14 07:26:00,
2013-08-14 02:31:00,77.9,73.4,29.41,North,0,0.0,0.0,86,0.00,,BKN,0.00,VWS V14.01,2013-08-14 07:31:00,
2013-08-14 02:36:00,77.9,73.4,29.41,North,0,0.0,0.0,86,0.00,,BKN,0.00,VWS V14.01,2013-08-14 07:36:00,
2013-08-14 02:41:00,77.9,73.4,29.41,North,0,0.0,0.0,86,0.00,,BKN,0.00,VWS V14.01,2013-08-14 07:41:00,
2013-08-14 02:46:00,77.9,73.4,29.41,North,0,0.0,0.0,86,0.00,,BKN,0.00,VWS V14.01,2013-08-14 07:46:00,
2013-08-14 02:52:00,77.7,73.2,29.41,North,0,0.0,0.0,86,0.00,,BKN,0.00,VWS V14.01,2013-08-14 07:52:00,
2013-08-14 02:57:00,77.7,73.2,29.41,North,0,0.0,0.0,86,0.00,,BKN,0.00,VWS V14.01,2013-08-14 07:57:00,
2013-08-14 03:02:00,77.7,73.6,29.41,North,0,0.0,0.0,87,0.00,,BKN,0.00,VWS V14.01,2013-08-14 08:02:00,
2013-08-14 03:07:00,77.7,73.6,29.41,North,0,0.0,0.0,87,0.00,,BKN,0.00,VWS V14.01,2013-08-14 08:07:00,
2013-08-14 03:12:00,77.5,73.4,29.41,North,0,0.0,0.0,87,0.00,,BKN,0.00,VWS V14.01,2013-08-14 08:12:00,
2013-08-14 03:17:00,77.5,73.4,29.38,North,0,0.0,0.0,87,0.00,,BKN,0.00,VWS V14.01,2013-08-14 08:17:00,
2013-08-14 03:22:00,77.5,73.4,29.38,North,0,0.0,0.0,87,0.00,,BKN,0.00,VWS V14.01,2013-08-14 08:22:00,
2013-08-14 03:27:00,77.5,73.4,29.38,North,0,0.0,0.0,87,0.00,,BKN,0.00,VWS V14.01,2013-08-14 08:27:00,
2013-08-14 03:33:00,77.5,73.4,29.38,North,0,0.0,0.0,87,0.00,,BKN,0.00,VWS V14.01,2013-08-14 08:33:00,
2013-08-14 03:38:00,77.5,73.4,29.38,North,0,0.0,0.0,87,0.00,,BKN,0.00,VWS V14.01,2013-08-14 08:38:00,
2013-08-14 03:44:00,77.5,73.4,29.38,North,0,0.0,0.0,87,0.00,,BKN,0.00,VWS V14.01,2013-08-14 08:44:00,
2013-08-14 03:49:00,77.5,73.4,29.38,North,0,0.0,0.0,87,0.04,,BKN,0.04,VWS V14.01,2013-08-14 08:49:00,
2013-08-14 03:55:00,77.5,73.7,29.38,North,0,0.0,0.0,88,0.04,,BKN,0.04,VWS V14.01,2013-08-14 08:55:00,
2013-08-14 04:00:00,77.5,73.7,29.38,North,0,0.0,0.0,88,0.04,,BKN,0.04,VWS V14.01,2013-08-14 09:00:00,
2013-08-14 04:05:00,77.7,73.9,29.38,North,0,0.0,0.0,88,0.04,,BKN,0.04,VWS V14.01,2013-08-14 09:05:00,
2013-08-14 04:10:00,77.7,73.9,29.38,North,0,0.0,0.0,88,0.04,,BKN,0.04,VWS V14.01,2013-08-14 09:10:00,
2013-08-14 04:15:00,77.7,73.9,29.38,North,0,0.0,0.0,88,0.04,,BKN,0.04,VWS V14.01,2013-08-14 09:15:00,
2013-08-14 04:20:00,77.5,74.1,29.41,North,0,0.0,0.0,89,0.04,,BKN,0.04,VWS V14.01,2013-08-14 09:20:00,
2013-08-14 04:25:00,77.5,74.1,29.41,North,0,0.0,0.0,89,0.04,,BKN,0.04,VWS V14.01,2013-08-14 09:25:00,
2013-08-14 04:30:00,77.2,74.0,29.41,North,0,0.0,0.0,90,0.04,,BKN,0.04,VWS V14.01,2013-08-14 09:30:00,
2013-08-14 04:35:00,76.8,73.7,29.41,North,0,0.0,0.0,90,0.16,,BKN,0.16,VWS V14.01,2013-08-14 09:35:00,
2013-08-14 04:41:00,76.6,73.5,29.41,North,0,0.0,0.0,90,0.16,,BKN,0.20,VWS V14.01,2013-08-14 09:41:00,
2013-08-14 04:46:00,76.3,73.1,29.41,North,0,0.0,0.0,90,0.20,,BKN,0.24,VWS V14.01,2013-08-14 09:46:00,
2013-08-14 04:51:00,76.1,73.0,29.41,North,0,0.0,0.0,90,0.24,,BKN,0.28,VWS V14.01,2013-08-14 09:51:00,
2013-08-14 04:56:00,75.9,72.8,29.41,North,0,0.0,0.0,90,0.24,,BKN,0.28,VWS V14.01,2013-08-14 09:56:00,
2013-08-14 05:01:00,75.7,72.6,29.41,North,0,0.0,0.0,90,0.24,,BKN,0.28,VWS V14.01,2013-08-14 10:01:00,
2013-08-14 05:06:00,75.7,72.9,29.41,North,0,0.0,0.0,91,0.24,,BKN,0.28,VWS V14.01,2013-08-14 10:06:00,
2013-08-14 05:11:00,75.9,73.1,29.41,North,0,0.0,0.0,91,0.24,,BKN,0.28,VWS V14.01,2013-08-14 10:11:00,
2013-08-14 05:16:00,76.1,73.3,29.41,North,0,0.0,0.0,91,0.28,,BKN,0.31,VWS V14.01,2013-08-14 10:16:00,
2013-08-14 05:21:00,76.1,73.3,29.41,North,0,0.0,0.0,91,0.28,,BKN,0.31,VWS V14.01,2013-08-14 10:21:00,
2013-08-14 05:26:00,75.7,72.9,29.41,North,0,0.0,0.0,91,0.28,,BKN,0.31,VWS V14.01,2013-08-14 10:26:00,
2013-08-14 05:32:00,75.7,72.9,29.41,North,0,0.0,0.0,91,0.31,,BKN,0.35,VWS V14.01,2013-08-14 10:32:00,
2013-08-14 05:37:00,75.7,72.9,29.41,North,0,0.0,0.0,91,0.24,,BKN,0.39,VWS V14.01,2013-08-14 10:37:00,
2013-08-14 05:42:00,75.6,72.8,29.41,North,0,0.0,0.0,91,0.24,,BKN,0.43,VWS V14.01,2013-08-14 10:42:00,
2013-08-14 05:47:00,75.6,72.8,29.41,North,0,0.0,0.0,91,0.24,,BKN,0.47,VWS V14.01,2013-08-14 10:47:00,
2013-08-14 05:52:00,75.4,72.6,29.41,North,0,0.0,0.0,91,0.35,,BKN,0.63,VWS V14.01,2013-08-14 10:52:00,
2013-08-14 05:57:00,75.4,72.9,29.41,North,0,0.0,0.0,92,0.47,,BKN,0.75,VWS V14.01,2013-08-14 10:57:00,
2013-08-14 06:02:00,75.4,72.9,29.41,North,0,0.0,0.0,92,0.47,,BKN,0.75,VWS V14.01,2013-08-14 11:02:00,
2013-08-14 06:07:00,75.4,72.9,29.41,North,0,0.0,0.0,92,0.47,,BKN,0.75,VWS V14.01,2013-08-14 11:07:00,
2013-08-14 06:12:00,75.6,73.1,29.41,North,0,0.0,0.0,92,0.47,,BKN,0.75,VWS V14.01,2013-08-14 11:12:00,
2013-08-14 06:17:00,75.6,73.1,29.41,North,0,0.0,0.0,92,0.43,,BKN,0.75,VWS V14.01,2013-08-14 11:17:00,
2013-08-14 06:23:00,75.6,73.1,29.41,North,0,0.0,0.0,92,0.47,,BKN,0.79,VWS V14.01,2013-08-14 11:23:00,
2013-08-14 06:28:00,75.7,73.2,29.41,North,0,0.0,0.0,92,0.47,,BKN,0.79,VWS V14.01,2013-08-14 11:28:00,
2013-08-14 06:33:00,75.7,73.2,29.41,North,0,0.0,0.0,92,0.43,,BKN,0.79,VWS V14.01,2013-08-14 11:33:00,
2013-08-14 06:38:00,75.7,73.2,29.41,North,0,0.0,0.0,92,0.43,,BKN,0.79,VWS V14.01,2013-08-14 11:38:00,
2013-08-14 06:43:00,75.9,73.4,29.41,North,0,0.0,0.0,92,0.39,,BKN,0.79,VWS V14.01,2013-08-14 11:43:00,
2013-08-14 06:48:00,75.7,73.2,29.41,North,0,0.0,0.0,92,0.31,,BKN,0.79,VWS V14.01,2013-08-14 11:48:00,
2013-08-14 06:53:00,75.7,73.2,29.41,North,0,0.0,0.0,92,0.20,,BKN,0.79,VWS V14.01,2013-08-14 11:53:00,
2013-08-14 06:58:00,75.7,73.2,29.41,North,0,0.0,0.0,92,0.12,,BKN,0.79,VWS V14.01,2013-08-14 11:58:00,
2013-08-14 07:04:00,75.7,73.6,29.41,North,0,0.0,0.0,93,0.04,,BKN,0.79,VWS V14.01,2013-08-14 12:04:00,
2013-08-14 07:09:00,75.9,73.8,29.41,North,0,0.0,0.0,93,0.04,,BKN,0.79,VWS V14.01,2013-08-14 12:09:00,
2013-08-14 07:14:00,75.9,73.8,29.41,North,0,0.0,0.0,93,0.04,,BKN,0.79,VWS V14.01,2013-08-14 12:14:00,
2013-08-14 07:19:00,75.9,73.8,29.41,North,0,0.0,0.0,93,0.04,,BKN,0.79,VWS V14.01,2013-08-14 12:19:00,
2013-08-14 07:24:00,75.9,73.8,29.41,North,0,0.0,0.0,93,0.00,,BKN,0.79,VWS V14.01,2013-08-14 12:24:00,
2013-08-14 07:29:00,76.1,73.9,29.41,North,0,0.0,0.0,93,0.00,,BKN,0.79,VWS V14.01,2013-08-14 12:29:00,
2013-08-14 07:35:00,76.1,73.9,29.44,North,0,0.0,0.0,93,0.00,,BKN,0.79,VWS V14.01,2013-08-14 12:35:00,
2013-08-14 07:40:00,76.3,74.1,29.44,North,0,0.0,0.0,93,0.00,,BKN,0.79,VWS V14.01,2013-08-14 12:40:00,
2013-08-14 07:45:00,76.5,74.3,29.44,North,0,0.0,0.0,93,0.00,,BKN,0.79,VWS V14.01,2013-08-14 12:45:00,
2013-08-14 07:50:00,76.6,74.5,29.44,North,0,0.0,0.0,93,0.00,,BKN,0.79,VWS V14.01,2013-08-14 12:50:00,
2013-08-14 07:55:00,76.8,75.0,29.44,North,0,0.0,0.0,94,0.00,,BKN,0.79,VWS V14.01,2013-08-14 12:55:00,
2013-08-14 08:00:00,77.0,74.8,29.44,North,0,0.0,0.0,93,0.00,,BKN,0.79,VWS V14.01,2013-08-14 13:00:00,
2013-08-14 08:05:00,77.2,75.0,29.44,North,0,0.0,0.0,93,0.00,,BKN,0.79,VWS V14.01,2013-08-14 13:05:00,
2013-08-14 08:11:00,77.2,75.0,29.44,North,0,0.0,0.0,93,0.00,,BKN,0.79,VWS V14.01,2013-08-14 13:11:00,
2013-08-14 08:16:00,77.4,75.2,29.44,North,0,0.0,0.0,93,0.00,,BKN,0.79,VWS V14.01,2013-08-14 13:16:00,
2013-08-14 08:21:00,77.4,75.2,29.44,North,0,0.0,0.0,93,0.00,,BKN,0.79,VWS V14.01,2013-08-14 13:21:00,
2013-08-14 08:26:00,77.5,75.4,29.44,North,0,0.0,0.0,93,0.00,,BKN,0.79,VWS V14.01,2013-08-14 13:26:00,
2013-08-14 08:31:00,77.7,75.5,29.44,North,0,0.0,0.0,93,0.00,,BKN,0.79,VWS V14.01,2013-08-14 13:31:00,
2013-08-14 08:36:00,77.9,75.7,29.44,North,0,0.0,0.0,93,0.00,,BKN,0.79,VWS V14.01,2013-08-14 13:36:00,
2013-08-14 08:41:00,78.3,76.4,29.44,North,0,0.0,0.0,94,0.00,,BKN,0.79,VWS V14.01,2013-08-14 13:41:00,
2013-08-14 08:46:00,78.4,76.6,29.44,North,0,0.0,0.0,94,0.00,,BKN,0.79,VWS V14.01,2013-08-14 13:46:00,
2013-08-14 08:52:00,78.6,76.8,29.44,North,0,0.0,0.0,94,0.00,,BKN,0.79,VWS V14.01,2013-08-14 13:52:00,
2013-08-14 08:57:00,78.3,76.1,29.44,North,0,0.0,0.0,93,0.00,,BKN,0.79,VWS V14.01,2013-08-14 13:57:00,
2013-08-14 09:02:00,78.1,75.9,29.47,North,0,0.0,0.0,93,0.00,,BKN,0.79,VWS V14.01,2013-08-14 14:02:00,
2013-08-14 09:07:00,78.3,76.1,29.47,North,0,0.0,0.0,93,0.00,,BKN,0.79,VWS V14.01,2013-08-14 14:07:00,
2013-08-14 09:12:00,78.4,76.2,29.47,North,0,0.0,0.0,93,0.00,,BKN,0.79,VWS V14.01,2013-08-14 14:12:00,
2013-08-14 09:17:00,78.6,76.4,29.47,North,0,0.0,0.0,93,0.00,,BKN,0.79,VWS V14.01,2013-08-14 14:17:00,
2013-08-14 09:23:00,78.8,76.3,29.47,North,0,0.0,0.0,92,0.00,,BKN,0.79,VWS V14.01,2013-08-14 14:23:00,
2013-08-14 09:28:00,79.0,76.5,29.47,North,0,0.0,0.0,92,0.00,,BKN,0.79,VWS V14.01,2013-08-14 14:28:00,
2013-08-14 09:33:00,79.2,76.6,29.47,North,0,0.0,0.0,92,0.00,,BKN,0.79,VWS V14.01,2013-08-14 14:33:00,
2013-08-14 09:38:00,79.3,76.8,29.47,North,0,0.0,0.0,92,0.00,,BKN,0.79,VWS V14.01,2013-08-14 14:38:00,
2013-08-14 09:43:00,79.5,77.0,29.47,North,0,0.0,0.0,92,0.00,,BKN,0.79,VWS V14.01,2013-08-14 14:43:00,
2013-08-14 09:48:00,79.5,76.7,29.47,North,0,0.0,0.0,91,0.00,,BKN,0.79,VWS V14.01,2013-08-14 14:48:00,
2013-08-14 09:54:00,79.9,77.0,29.47,North,0,0.0,0.0,91,0.00,,BKN,0.79,VWS V14.01,2013-08-14 14:54:00,
2013-08-14 09:59:00,80.2,76.7,29.47,North,0,0.0,0.0,89,0.00,,BKN,0.79,VWS V14.01,2013-08-14 14:59:00,
2013-08-14 10:04:00,80.8,76.9,29.47,North,0,0.0,0.0,88,0.00,,BKN,0.79,VWS V14.01,2013-08-14 15:04:00,
2013-08-14 10:09:00,81.0,77.1,29.47,North,0,0.0,0.0,88,0.00,,BKN,0.79,VWS V14.01,2013-08-14 15:09:00,
2013-08-14 10:14:00,81.0,77.1,29.47,North,0,0.0,0.0,88,0.00,,BKN,0.79,VWS V14.01,2013-08-14 15:14:00,
2013-08-14 10:19:00,81.0,77.1,29.47,North,0,0.0,0.0,88,0.00,,BKN,0.79,VWS V14.01,2013-08-14 15:19:00,
2013-08-14 10:25:00,80.6,75.3,29.47,North,0,0.0,0.0,84,0.00,,BKN,0.79,VWS V14.01,2013-08-14 15:25:00,
2013-08-14 10:30:00,80.4,75.2,29.47,North,0,0.0,0.0,84,0.00,,BKN,0.79,VWS V14.01,2013-08-14 15:30:00,
2013-08-14 10:35:00,80.2,75.0,29.47,North,0,0.0,0.0,84,0.00,,BKN,0.79,VWS V14.01,2013-08-14 15:35:00,
2013-08-14 10:40:00,80.2,75.0,29.47,North,0,0.0,0.0,84,0.00,,BKN,0.79,VWS V14.01,2013-08-14 15:40:00,
2013-08-14 10:45:00,80.2,75.0,29.47,North,0,0.0,0.0,84,0.00,,BKN,0.79,VWS V14.01,2013-08-14 15:45:00,
2013-08-14 10:50:00,80.4,75.2,29.47,North,0,0.0,0.0,84,0.00,,BKN,0.79,VWS V14.01,2013-08-14 15:50:00,
2013-08-14 10:55:00,80.4,75.5,29.47,North,0,0.0,0.0,85,0.00,,BKN,0.79,VWS V14.01,2013-08-14 15:55:00,
2013-08-14 11:01:00,80.8,75.8,29.47,North,0,0.0,0.0,85,0.00,,BKN,0.79,VWS V14.01,2013-08-14 16:01:00,
2013-08-14 11:06:00,80.8,75.8,29.47,North,0,0.0,0.0,85,0.00,,BKN,0.79,VWS V14.01,2013-08-14 16:06:00,
2013-08-14 11:11:00,80.8,75.8,29.47,North,0,0.0,0.0,85,0.00,,BKN,0.79,VWS V14.01,2013-08-14 16:11:00,
2013-08-14 11:16:00,81.7,77.1,29.47,North,0,0.0,0.0,86,0.00,,BKN,0.79,VWS V14.01,2013-08-14 16:16:00,
2013-08-14 11:21:00,82.6,77.6,29.47,North,0,0.0,0.0,85,0.00,,BKN,0.79,VWS V14.01,2013-08-14 16:21:00,
2013-08-14 11:26:00,83.1,77.4,29.47,North,0,0.0,0.0,83,0.00,,BKN,0.79,VWS V14.01,2013-08-14 16:26:00,
2013-08-14 11:31:00,84.0,77.9,29.47,North,0,0.0,0.0,82,0.00,,BKN,0.79,VWS V14.01,2013-08-14 16:31:00,
2013-08-14 11:37:00,84.7,77.1,29.47,North,0,0.0,0.0,78,0.00,,BKN,0.79,VWS V14.01,2013-08-14 16:37:00,
2013-08-14 11:42:00,85.3,75.2,29.47,North,0,0.0,0.0,72,0.00,,BKN,0.79,VWS V14.01,2013-08-14 16:42:00,
2013-08-14 11:47:00,85.1,73.8,29.47,North,0,0.0,0.0,69,0.00,,BKN,0.79,VWS V14.01,2013-08-14 16:47:00,
2013-08-14 11:52:00,84.6,72.8,29.47,North,0,0.0,0.0,68,0.00,,BKN,0.79,VWS V14.01,2013-08-14 16:52:00,
2013-08-14 11:58:00,84.0,72.8,29.47,North,0,0.0,0.0,69,0.00,,BKN,0.79,VWS V14.01,2013-08-14 16:58:00,
2013-08-14 12:04:00,83.7,72.4,29.47,North,0,0.0,0.0,69,0.00,,BKN,0.79,VWS V14.01,2013-08-14 17:04:00,
2013-08-14 12:09:00,83.3,72.1,29.47,North,0,0.0,0.0,69,0.00,,BKN,0.79,VWS V14.01,2013-08-14 17:09:00,
2013-08-14 12:14:00,82.9,72.2,29.47,North,0,0.0,0.0,70,0.00,,BKN,0.79,VWS V14.01,2013-08-14 17:14:00,
2013-08-14 12:20:00,82.8,72.4,29.47,North,0,0.0,0.0,71,0.00,,BKN,0.79,VWS V14.01,2013-08-14 17:20:00,
2013-08-14 12:25:00,82.6,72.7,29.47,North,0,0.0,0.0,72,0.00,,BKN,0.79,VWS V14.01,2013-08-14 17:25:00,
2013-08-14 12:30:00,82.6,72.7,29.47,North,0,0.0,0.0,72,0.00,,BKN,0.79,VWS V14.01,2013-08-14 17:30:00,
2013-08-14 12:35:00,82.8,72.8,29.47,North,0,0.0,0.0,72,0.00,,BKN,0.79,VWS V14.01,2013-08-14 17:35:00,
2013-08-14 12:40:00,83.1,73.2,29.47,North,0,0.0,0.0,72,0.00,,BKN,0.79,VWS V14.01,2013-08-14 17:40:00,
2013-08-14 12:45:00,83.1,72.8,29.47,North,0,0.0,0.0,71,0.00,,BKN,0.79,VWS V14.01,2013-08-14 17:45:00,
2013-08-14 12:50:00,83.5,72.7,29.44,North,0,0.0,0.0,70,0.00,,BKN,0.79,VWS V14.01,2013-08-14 17:50:00,
2013-08-14 12:55:00,83.7,72.8,29.44,North,0,0.0,0.0,70,0.00,,BKN,0.79,VWS V14.01,2013-08-14 17:55:00,
2013-08-14 13:00:00,84.2,73.4,29.44,North,0,0.0,0.0,70,0.00,,BKN,0.79,VWS V14.01,2013-08-14 18:00:00,
2013-08-14 13:06:00,84.4,73.5,29.44,North,0,0.0,0.0,70,0.00,,BKN,0.79,VWS V14.01,2013-08-14 18:06:00,
2013-08-14 13:11:00,84.7,72.1,29.44,North,0,0.0,0.0,66,0.00,,BKN,0.79,VWS V14.01,2013-08-14 18:11:00,
2013-08-14 13:16:00,85.3,72.2,29.44,North,0,0.0,0.0,65,0.00,,BKN,0.79,VWS V14.01,2013-08-14 18:16:00,
2013-08-14 13:21:00,86.0,72.9,29.44,North,0,0.0,0.0,65,0.00,,BKN,0.79,VWS V14.01,2013-08-14 18:21:00,
2013-08-14 13:26:00,86.4,72.3,29.44,North,0,0.0,0.0,63,0.00,,BKN,0.79,VWS V14.01,2013-08-14 18:26:00,
2013-08-14 13:32:00,86.7,71.7,29.44,North,0,0.0,0.0,61,0.00,,BKN,0.79,VWS V14.01,2013-08-14 18:32:00,
2013-08-14 13:37:00,86.9,71.8,29.44,North,0,0.0,0.0,61,0.00,,BKN,0.79,VWS V14.01,2013-08-14 18:37:00,
2013-08-14 13:42:00,87.1,72.0,29.44,North,0,0.0,0.0,61,0.00,,BKN,0.79,VWS V14.01,2013-08-14 18:42:00,
2013-08-14 13:48:00,87.4,71.4,29.44,North,0,0.0,0.0,59,0.00,,BKN,0.79,VWS V14.01,2013-08-14 18:48:00,
2013-08-14 13:54:00,88.2,71.0,29.44,North,0,0.0,0.0,57,0.00,,BKN,0.79,VWS V14.01,2013-08-14 18:54:00,
2013-08-14 13:59:00,88.9,71.2,29.44,North,0,0.0,0.0,56,0.00,,BKN,0.79,VWS V14.01,2013-08-14 18:59:00,
2013-08-14 14:04:00,89.4,70.6,29.44,North,0,0.0,0.0,54,0.00,,BKN,0.79,VWS V14.01,2013-08-14 19:04:00,
2013-08-14 14:12:00,89.2,68.2,29.44,North,0,0.0,0.0,50,0.00,,BKN,0.79,VWS V14.01,2013-08-14 19:12:00,
2013-08-14 14:17:00,88.7,69.4,29.44,North,0,0.0,0.0,53,0.00,,BKN,0.79,VWS V14.01,2013-08-14 19:17:00,
2013-08-14 14:23:00,88.5,69.2,29.44,North,0,0.0,0.0,53,0.00,,BKN,0.79,VWS V14.01,2013-08-14 19:23:00,
2013-08-14 14:28:00,88.9,70.1,29.44,North,0,0.0,0.0,54,0.00,,BKN,0.79,VWS V14.01,2013-08-14 19:28:00,
2013-08-14 14:34:00,89.1,68.6,29.41,North,0,0.0,0.0,51,0.00,,BKN,0.79,VWS V14.01,2013-08-14 19:34:00,
2013-08-14 14:39:00,89.6,69.7,29.41,North,0,0.0,0.0,52,0.00,,BKN,0.79,VWS V14.01,2013-08-14 19:39:00,
2013-08-14 14:44:00,90.5,69.9,29.41,North,0,0.0,0.0,51,0.00,,BKN,0.79,VWS V14.01,2013-08-14 19:44:00,
2013-08-14 14:50:00,91.0,69.2,29.41,North,0,0.0,0.0,49,0.00,,BKN,0.79,VWS V14.01,2013-08-14 19:50:00,
2013-08-14 14:55:00,90.9,67.2,29.41,North,0,0.0,0.0,46,0.00,,BKN,0.79,VWS V14.01,2013-08-14 19:55:00,
2013-08-14 15:00:00,90.5,66.9,29.41,North,0,0.0,0.0,46,0.00,,BKN,0.79,VWS V14.01,2013-08-14 20:00:00,
2013-08-14 15:05:00,90.1,66.6,29.41,North,0,0.0,0.0,46,0.00,,BKN,0.79,VWS V14.01,2013-08-14 20:05:00,
2013-08-14 15:10:00,90.7,68.3,29.41,North,0,0.0,0.0,48,0.00,,BKN,0.79,VWS V14.01,2013-08-14 20:10:00,
2013-08-14 15:16:00,91.0,66.8,29.41,North,0,0.0,0.0,45,0.00,,BKN,0.79,VWS V14.01,2013-08-14 20:16:00,
2013-08-14 15:21:00,91.6,67.9,29.41,North,0,0.0,0.0,46,0.00,,BKN,0.79,VWS V14.01,2013-08-14 20:21:00,
2013-08-14 15:28:00,92.1,66.4,29.41,North,0,0.0,0.0,43,0.00,,BKN,0.79,VWS V14.01,2013-08-14 20:28:00,
2013-08-14 15:34:00,92.3,66.6,29.41,North,0,0.0,0.0,43,0.00,,BKN,0.79,VWS V14.01,2013-08-14 20:34:00,
2013-08-14 15:39:00,92.1,67.1,29.38,North,0,0.0,0.0,44,0.00,,BKN,0.79,VWS V14.01,2013-08-14 20:39:00,
2013-08-14 15:44:00,92.7,67.6,29.38,North,0,0.0,0.0,44,0.00,,BKN,0.79,VWS V14.01,2013-08-14 20:44:00,
2013-08-14 15:49:00,92.7,66.2,29.38,North,0,0.0,0.0,42,0.00,,BKN,0.79,VWS V14.01,2013-08-14 20:49:00,
2013-08-14 15:54:00,92.5,66.8,29.38,North,0,0.0,0.0,43,0.00,,BKN,0.79,VWS V14.01,2013-08-14 20:54:00,
2013-08-14 16:00:00,91.6,67.2,29.38,North,0,0.0,0.0,45,0.00,,BKN,0.79,VWS V14.01,2013-08-14 21:00:00,
2013-08-14 16:05:00,90.9,67.2,29.38,North,0,0.0,0.0,46,0.00,,BKN,0.79,VWS V14.01,2013-08-14 21:05:00,
2013-08-14 16:10:00,90.3,68.0,29.38,North,0,0.0,0.0,48,0.00,,BKN,0.79,VWS V14.01,2013-08-14 21:10:00,
2013-08-14 16:15:00,90.5,68.8,29.38,North,0,0.0,0.0,49,0.00,,BKN,0.79,VWS V14.01,2013-08-14 21:15:00,
2013-08-14 16:20:00,90.3,67.4,29.38,North,0,0.0,0.0,47,0.00,,BKN,0.79,VWS V14.01,2013-08-14 21:20:00,
2013-08-14 16:25:00,90.1,67.2,29.38,North,0,0.0,0.0,47,0.00,,BKN,0.79,VWS V14.01,2013-08-14 21:25:00,
2013-08-14 16:30:00,89.6,67.9,29.38,North,0,0.0,0.0,49,0.00,,BKN,0.79,VWS V14.01,2013-08-14 21:30:00,
2013-08-14 16:35:00,89.1,69.2,29.38,North,0,0.0,0.0,52,0.00,,BKN,0.79,VWS V14.01,2013-08-14 21:35:00,
2013-08-14 16:40:00,88.5,67.5,29.38,North,0,0.0,0.0,50,0.00,,BKN,0.79,VWS V14.01,2013-08-14 21:40:00,
2013-08-14 16:45:00,88.5,67.5,29.38,North,0,0.0,0.0,50,0.00,,BKN,0.79,VWS V14.01,2013-08-14 21:45:00,
2013-08-14 16:51:00,89.1,68.0,29.38,North,0,0.0,0.0,50,0.00,,BKN,0.79,VWS V14.01,2013-08-14 21:51:00,
2013-08-14 16:56:00,89.2,67.6,29.38,North,0,0.0,0.0,49,0.00,,BKN,0.79,VWS V14.01,2013-08-14 21:56:00,
2013-08-14 17:01:00,89.4,68.3,29.38,North,0,0.0,0.0,50,0.00,,BKN,0.79,VWS V14.01,2013-08-14 22:01:00,
2013-08-14 17:06:00,89.1,66.8,29.38,North,0,0.0,0.0,48,0.00,,BKN,0.79,VWS V14.01,2013-08-14 22:06:00,
2013-08-14 17:11:00,88.9,67.3,29.38,North,0,0.0,0.0,49,0.00,,BKN,0.79,VWS V14.01,2013-08-14 22:11:00,
2013-08-14 17:16:00,88.0,67.6,29.38,North,0,0.0,0.0,51,0.00,,BKN,0.79,VWS V14.01,2013-08-14 22:16:00,
2013-08-14 17:21:00,87.3,66.9,29.38,North,0,0.0,0.0,51,0.00,,BKN,0.79,VWS V14.01,2013-08-14 22:21:00,
2013-08-14 17:26:00,86.9,66.6,29.38,North,0,0.0,0.0,51,0.00,,BKN,0.79,VWS V14.01,2013-08-14 22:26:00,
2013-08-14 17:31:00,86.4,67.2,29.38,North,0,0.0,0.0,53,0.00,,BKN,0.79,VWS V14.01,2013-08-14 22:31:00,
2013-08-14 17:36:00,86.0,67.4,29.38,North,0,0.0,0.0,54,0.00,,BKN,0.79,VWS V14.01,2013-08-14 22:36:00,
2013-08-14 17:42:00,86.0,67.4,29.38,North,0,0.0,0.0,54,0.00,,BKN,0.79,VWS V14.01,2013-08-14 22:42:00,
2013-08-14 17:47:00,85.3,68.3,29.38,North,0,0.0,0.0,57,0.00,,BKN,0.79,VWS V14.01,2013-08-14 22:47:00,
2013-08-14 17:52:00,84.7,69.3,29.38,North,0,0.0,0.0,60,0.00,,BKN,0.79,VWS V14.01,2013-08-14 22:52:00,
2013-08-14 17:57:00,84.0,70.5,29.38,North,0,0.0,0.0,64,0.00,,BKN,0.79,VWS V14.01,2013-08-14 22:57:00,
2013-08-14 18:03:00,83.1,71.0,29.38,North,0,0.0,0.0,67,0.00,,BKN,0.79,VWS V14.01,2013-08-14 23:03:00,
2013-08-14 18:08:00,82.9,70.9,29.38,North,0,0.0,0.0,67,0.00,,BKN,0.79,VWS V14.01,2013-08-14 23:08:00,
2013-08-14 18:13:00,82.2,71.9,29.38,North,0,0.0,0.0,71,0.04,,BKN,0.83,VWS V14.01,2013-08-14 23:13:00,
2013-08-14 18:18:00,82.0,72.5,29.38,North,0,0.0,0.0,73,0.08,,BKN,0.87,VWS V14.01,2013-08-14 23:18:00,
2013-08-14 18:23:00,81.9,72.8,29.38,North,0,0.0,0.0,74,0.08,,BKN,0.87,VWS V14.01,2013-08-14 23:23:00,
2013-08-14 18:29:00,81.7,73.0,29.38,North,0,0.0,0.0,75,0.08,,BKN,0.87,VWS V14.01,2013-08-14 23:29:00,
2013-08-14 18:34:00,81.9,73.6,29.38,North,0,0.0,0.0,76,0.08,,BKN,0.87,VWS V14.01,2013-08-14 23:34:00,
2013-08-14 18:39:00,81.9,73.6,29.38,North,0,0.0,0.0,76,0.08,,BKN,0.87,VWS V14.01,2013-08-14 23:39:00,
2013-08-14 18:44:00,81.9,73.6,29.38,North,0,0.0,0.0,76,0.08,,BKN,0.87,VWS V14.01,2013-08-14 23:44:00,
2013-08-14 18:49:00,81.9,73.6,29.38,North,0,0.0,0.0,76,0.08,,BKN,0.87,VWS V14.01,2013-08-14 23:49:00,
2013-08-14 18:54:00,81.9,73.6,29.38,North,0,0.0,0.0,76,0.08,,BKN,0.87,VWS V14.01,2013-08-14 23:54:00,
2013-08-14 19:00:00,81.9,73.6,29.38,North,0,0.0,0.0,76,0.08,,BKN,0.87,VWS V14.01,2013-08-15 00:00:00,
2013-08-14 19:05:00,82.2,74.7,29.38,North,0,0.0,0.0,78,0.08,,BKN,0.87,VWS V14.01,2013-08-15 00:05:00,
2013-08-14 19:10:00,82.0,74.5,29.38,North,0,0.0,0.0,78,0.08,,BKN,0.87,VWS V14.01,2013-08-15 00:10:00,
2013-08-14 19:15:00,81.9,74.7,29.38,North,0,0.0,0.0,79,0.04,,BKN,0.87,VWS V14.01,2013-08-15 00:15:00,
2013-08-14 19:20:00,81.9,74.7,29.38,North,0,0.0,0.0,79,0.00,,BKN,0.87,VWS V14.01,2013-08-15 00:20:00,
2013-08-14 19:25:00,81.5,74.7,29.38,North,0,0.0,0.0,80,0.00,,BKN,0.87,VWS V14.01,2013-08-15 00:25:00,
2013-08-14 19:30:00,81.1,74.4,29.38,North,0,0.0,0.0,80,0.00,,BKN,0.87,VWS V14.01,2013-08-15 00:30:00,
2013-08-14 19:35:00,80.6,73.5,29.41,North,0,0.0,0.0,79,0.00,,BKN,0.87,VWS V14.01,2013-08-15 00:35:00,
2013-08-14 19:40:00,80.2,73.5,29.41,North,0,0.0,0.0,80,0.00,,BKN,0.87,VWS V14.01,2013-08-15 00:40:00,
2013-08-14 19:45:00,80.1,73.3,29.41,North,0,0.0,0.0,80,0.00,,BKN,0.87,VWS V14.01,2013-08-15 00:45:00,
2013-08-14 19:50:00,79.9,73.2,29.41,North,0,0.0,0.0,80,0.00,,BKN,0.87,VWS V14.01,2013-08-15 00:50:00,
2013-08-14 19:55:00,79.7,72.6,29.41,North,0,0.0,0.0,79,0.00,,BKN,0.87,VWS V14.01,2013-08-15 00:55:00,
2013-08-14 20:01:00,79.5,72.8,29.41,North,0,0.0,0.0,80,0.00,,BKN,0.87,VWS V14.01,2013-08-15 01:01:00,
2013-08-14 20:06:00,79.3,72.3,29.41,North,0,0.0,0.0,79,0.00,,BKN,0.87,VWS V14.01,2013-08-15 01:06:00,
2013-08-14 20:11:00,79.2,72.1,29.41,North,0,0.0,0.0,79,0.00,,BKN,0.87,VWS V14.01,2013-08-15 01:11:00,
2013-08-14 20:16:00,78.6,71.6,29.41,North,0,0.0,0.0,79,0.00,,BKN,0.87,VWS V14.01,2013-08-15 01:16:00,
2013-08-14 20:21:00,78.4,71.0,29.41,North,0,0.0,0.0,78,0.00,,BKN,0.87,VWS V14.01,2013-08-15 01:21:00,
2013-08-14 20:26:00,78.3,70.8,29.41,North,0,0.0,0.0,78,0.00,,BKN,0.87,VWS V14.01,2013-08-15 01:26:00,
2013-08-14 20:31:00,78.3,70.8,29.41,North,0,0.0,0.0,78,0.00,,BKN,0.87,VWS V14.01,2013-08-15 01:31:00,
2013-08-14 20:36:00,78.3,70.8,29.41,North,0,0.0,0.0,78,0.00,,BKN,0.87,VWS V14.01,2013-08-15 01:36:00,
2013-08-14 20:41:00,78.3,70.8,29.41,North,0,0.0,0.0,78,0.00,,BKN,0.87,VWS V14.01,2013-08-15 01:41:00,
2013-08-14 20:47:00,78.3,70.8,29.41,North,0,0.0,0.0,78,0.00,,BKN,0.87,VWS V14.01,2013-08-15 01:47:00,
2013-08-14 20:52:00,78.3,70.8,29.41,North,0,0.0,0.0,78,0.00,,BKN,0.87,VWS V14.01,2013-08-15 01:52:00,
2013-08-14 20:57:00,78.1,70.7,29.41,North,0,0.0,0.0,78,0.00,,BKN,0.87,VWS V14.01,2013-08-15 01:57:00,
2013-08-14 21:02:00,78.1,71.0,29.41,North,0,0.0,0.0,79,0.00,,BKN,0.87,VWS V14.01,2013-08-15 02:02:00,
2013-08-14 21:07:00,78.3,71.2,29.41,North,0,0.0,0.0,79,0.00,,BKN,0.87,VWS V14.01,2013-08-15 02:07:00,
2013-08-14 21:12:00,78.3,71.2,29.41,North,0,0.0,0.0,79,0.00,,BKN,0.87,VWS V14.01,2013-08-15 02:12:00,
2013-08-14 21:17:00,78.3,71.2,29.44,North,0,0.0,0.0,79,0.00,,BKN,0.87,VWS V14.01,2013-08-15 02:17:00,
2013-08-14 21:22:00,78.3,71.2,29.44,North,0,0.0,0.0,79,0.00,,BKN,0.87,VWS V14.01,2013-08-15 02:22:00,
2013-08-14 21:27:00,78.3,71.2,29.44,North,0,0.0,0.0,79,0.00,,BKN,0.87,VWS V14.01,2013-08-15 02:27:00,
2013-08-14 21:32:00,78.3,71.2,29.44,North,0,0.0,0.0,79,0.00,,BKN,0.87,VWS V14.01,2013-08-15 02:32:00,
2013-08-14 21:38:00,78.3,71.2,29.44,North,0,0.0,0.0,79,0.00,,BKN,0.87,VWS V14.01,2013-08-15 02:38:00,
2013-08-14 21:43:00,78.3,71.2,29.44,North,0,0.0,0.0,79,0.00,,BKN,0.87,VWS V14.01,2013-08-15 02:43:00,
2013-08-14 21:48:00,78.1,71.4,29.44,North,0,0.0,0.0,80,0.00,,BKN,0.87,VWS V14.01,2013-08-15 02:48:00,
2013-08-14 21:53:00,78.1,71.4,29.44,North,0,0.0,0.0,80,0.00,,BKN,0.87,VWS V14.01,2013-08-15 02:53:00,
2013-08-14 21:58:00,78.1,71.4,29.44,North,0,0.0,0.0,80,0.00,,BKN,0.87,VWS V14.01,2013-08-15 02:58:00,
2013-08-14 22:03:00,77.9,71.2,29.44,North,0,0.0,0.0,80,0.00,,BKN,0.87,VWS V14.01,2013-08-15 03:03:00,
2013-08-14 22:08:00,77.9,71.2,29.44,North,0,0.0,0.0,80,0.00,,BKN,0.87,VWS V14.01,2013-08-15 03:08:00,
2013-08-14 22:13:00,78.1,71.4,29.44,North,0,0.0,0.0,80,0.00,,BKN,0.87,VWS V14.01,2013-08-15 03:13:00,
2013-08-14 22:15:00,78.1,71.4,29.44,North,0,0.0,0.0,80,0.00,,BKN,0.87,VWS V14.01,2013-08-15 03:15:00,
2013-08-14 22:20:00,78.1,71.0,29.44,North,0,0.0,0.0,79,0.00,,BKN,0.87,VWS V14.01,2013-08-15 03:20:00,
2013-08-14 22:25:00,77.9,70.9,29.44,North,0,0.0,0.0,79,0.00,,BKN,0.87,VWS V14.01,2013-08-15 03:25:00,
2013-08-14 22:30:00,77.9,70.9,29.44,North,0,0.0,0.0,79,0.00,,BKN,0.87,VWS V14.01,2013-08-15 03:30:00,
2013-08-14 22:35:00,77.9,70.9,29.44,North,0,0.0,0.0,79,0.00,,BKN,0.87,VWS V14.01,2013-08-15 03:35:00,
2013-08-14 22:40:00,77.7,70.7,29.44,North,0,0.0,0.0,79,0.00,,BKN,0.87,VWS V14.01,2013-08-15 03:40:00,
2013-08-14 22:45:00,77.7,70.7,29.44,North,0,0.0,0.0,79,0.00,,BKN,0.87,VWS V14.01,2013-08-15 03:45:00,
2013-08-14 22:50:00,77.7,70.7,29.44,North,0,0.0,0.0,79,0.00,,BKN,0.87,VWS V14.01,2013-08-15 03:50:00,
2013-08-14 22:55:00,77.5,70.1,29.44,North,0,0.0,0.0,78,0.00,,BKN,0.87,VWS V14.01,2013-08-15 03:55:00,
2013-08-14 23:00:00,77.5,70.1,29.44,North,0,0.0,0.0,78,0.00,,BKN,0.87,VWS V14.01,2013-08-15 04:00:00,
2013-08-14 23:01:00,77.5,70.1,29.44,North,0,0.0,0.0,78,0.00,,BKN,0.87,VWS V14.01,2013-08-15 04:01:00,
2013-08-14 23:02:00,77.5,70.1,29.44,North,0,0.0,0.0,78,0.00,,BKN,0.87,VWS V14.01,2013-08-15 04:02:00,
2013-08-14 23:03:00,77.5,70.1,29.44,North,0,0.0,0.0,78,0.00,,BKN,0.87,VWS V14.01,2013-08-15 04:03:00,
2013-08-14 23:08:00,77.4,70.0,29.44,North,0,0.0,0.0,78,0.00,,BKN,0.87,VWS V14.01,2013-08-15 04:08:00,
2013-08-14 23:13:00,77.4,70.0,29.44,North,0,0.0,0.0,78,0.00,,BKN,0.87,VWS V14.01,2013-08-15 04:13:00,
2013-08-14 23:18:00,77.4,70.0,29.47,North,0,0.0,0.0,78,0.00,,BKN,0.87,VWS V14.01,2013-08-15 04:18:00,
2013-08-14 23:23:00,77.2,69.8,29.47,North,0,0.0,0.0,78,0.00,,BKN,0.87,VWS V14.01,2013-08-15 04:23:00,
2013-08-14 23:28:00,77.2,69.8,29.47,North,0,0.0,0.0,78,0.00,,BKN,0.87,VWS V14.01,2013-08-15 04:28:00,
2013-08-14 23:33:00,77.0,69.6,29.47,North,0,0.0,0.0,78,0.00,,BKN,0.87,VWS V14.01,2013-08-15 04:33:00,
2013-08-14 23:38:00,77.0,69.6,29.47,North,0,0.0,0.0,78,0.00,,BKN,0.87,VWS V14.01,2013-08-15 04:38:00,
2013-08-14 23:43:00,77.0,69.6,29.47,North,0,0.0,0.0,78,0.00,,BKN,0.87,VWS V14.01,2013-08-15 04:43:00,
2013-08-14 23:48:00,77.0,69.6,29.47,North,0,0.0,0.0,78,0.00,,BKN,0.87,VWS V14.01,2013-08-15 04:48:00,
2013-08-14 23:54:00,77.0,69.6,29.47,North,0,0.0,0.0,78,0.00,,BKN,0.87,VWS V14.01,2013-08-15 04:54:00,
2013-08-14 23:59:00,76.8,69.4,29.47,North,0,0.0,0.0,78,0.00,,BKN,0.87,VWS V14.01,2013-08-15 04:59:00,